sensor_id;sensor_type;location;lat;lon;timestamp;P1;durP1;ratioP1;P2;durP2;ratioP2
13816;SDS011;6979;52.116;5.286;2024-02-21T00:00:46;11.50;;;4.00;;
13816;SDS011;6979;52.116;5.286;2024-02-21T00:03:13;9.17;;;4.67;;
13816;SDS011;6979;52.116;5.286;2024-02-21T00:05:40;12.73;;;5.57;;
13816;SDS011;6979;52.116;5.286;2024-02-21T00:08:06;6.40;;;4.00;;
13816;SDS011;6979;52.116;5.286;2024-02-21T00:10:35;12.80;;;3.80;;
13816;SDS011;6979;52.116;5.286;2024-02-21T00:13:01;5.97;;;3.50;;
13816;SDS011;6979;52.116;5.286;2024-02-21T00:15:28;8.10;;;3.87;;
13816;SDS011;6979;52.116;5.286;2024-02-21T00:17:55;8.73;;;4.43;;
13816;SDS011;6979;52.116;5.286;2024-02-21T00:20:22;7.07;;;4.10;;
13816;SDS011;6979;52.116;5.286;2024-02-21T00:22:50;8.83;;;4.77;;
13816;SDS011;6979;52.116;5.286;2024-02-21T00:25:17;9.40;;;4.40;;
13816;SDS011;6979;52.116;5.286;2024-02-21T00:27:44;6.73;;;3.73;;
13816;SDS011;6979;52.116;5.286;2024-02-21T00:30:12;6.60;;;3.97;;
13816;SDS011;6979;52.116;5.286;2024-02-21T00:32:39;7.47;;;4.50;;
13816;SDS011;6979;52.116;5.286;2024-02-21T00:35:06;6.57;;;4.07;;
13816;SDS011;6979;52.116;5.286;2024-02-21T00:37:33;6.23;;;3.80;;
13816;SDS011;6979;52.116;5.286;2024-02-21T00:40:00;8.43;;;3.90;;
13816;SDS011;6979;52.116;5.286;2024-02-21T00:42:26;11.60;;;4.40;;
13816;SDS011;6979;52.116;5.286;2024-02-21T00:44:54;8.47;;;4.27;;
13816;SDS011;6979;52.116;5.286;2024-02-21T00:47:21;6.87;;;3.70;;
13816;SDS011;6979;52.116;5.286;2024-02-21T00:49:48;7.90;;;4.20;;
13816;SDS011;6979;52.116;5.286;2024-02-21T00:52:15;9.93;;;4.10;;
13816;SDS011;6979;52.116;5.286;2024-02-21T00:54:42;9.27;;;3.97;;
13816;SDS011;6979;52.116;5.286;2024-02-21T00:57:09;7.10;;;3.87;;
13816;SDS011;6979;52.116;5.286;2024-02-21T00:59:35;9.70;;;4.43;;
13816;SDS011;6979;52.116;5.286;2024-02-21T01:02:06;13.50;;;4.10;;
13816;SDS011;6979;52.116;5.286;2024-02-21T01:04:34;5.97;;;4.00;;
13816;SDS011;6979;52.116;5.286;2024-02-21T01:07:01;9.33;;;5.00;;
13816;SDS011;6979;52.116;5.286;2024-02-21T01:09:28;7.80;;;3.83;;
13816;SDS011;6979;52.116;5.286;2024-02-21T01:11:55;5.40;;;4.03;;
13816;SDS011;6979;52.116;5.286;2024-02-21T01:14:22;9.63;;;5.07;;
13816;SDS011;6979;52.116;5.286;2024-02-21T01:16:48;12.57;;;4.53;;
13816;SDS011;6979;52.116;5.286;2024-02-21T01:19:17;10.43;;;4.93;;
13816;SDS011;6979;52.116;5.286;2024-02-21T01:21:44;6.03;;;4.90;;
13816;SDS011;6979;52.116;5.286;2024-02-21T01:24:10;10.70;;;5.20;;
13816;SDS011;6979;52.116;5.286;2024-02-21T01:26:37;6.80;;;4.33;;
13816;SDS011;6979;52.116;5.286;2024-02-21T01:29:04;8.33;;;4.73;;
13816;SDS011;6979;52.116;5.286;2024-02-21T01:31:31;10.13;;;5.20;;
13816;SDS011;6979;52.116;5.286;2024-02-21T01:33:57;7.57;;;4.93;;
13816;SDS011;6979;52.116;5.286;2024-02-21T01:36:26;11.23;;;4.40;;
13816;SDS011;6979;52.116;5.286;2024-02-21T01:38:52;11.23;;;5.10;;
13816;SDS011;6979;52.116;5.286;2024-02-21T01:41:19;5.90;;;4.10;;
13816;SDS011;6979;52.116;5.286;2024-02-21T01:43:46;7.93;;;4.37;;
13816;SDS011;6979;52.116;5.286;2024-02-21T01:46:16;9.50;;;4.50;;
13816;SDS011;6979;52.116;5.286;2024-02-21T01:48:43;8.77;;;4.20;;
13816;SDS011;6979;52.116;5.286;2024-02-21T01:51:11;11.33;;;5.47;;
13816;SDS011;6979;52.116;5.286;2024-02-21T01:53:40;14.77;;;5.30;;
13816;SDS011;6979;52.116;5.286;2024-02-21T01:56:10;7.83;;;5.27;;
13816;SDS011;6979;52.116;5.286;2024-02-21T01:58:38;10.93;;;5.43;;
13816;SDS011;6979;52.116;5.286;2024-02-21T02:01:06;9.33;;;5.40;;
13816;SDS011;6979;52.116;5.286;2024-02-21T02:03:33;7.23;;;4.90;;
13816;SDS011;6979;52.116;5.286;2024-02-21T02:06:00;9.50;;;5.27;;
13816;SDS011;6979;52.116;5.286;2024-02-21T02:08:28;10.70;;;5.23;;
13816;SDS011;6979;52.116;5.286;2024-02-21T02:10:56;6.80;;;4.97;;
13816;SDS011;6979;52.116;5.286;2024-02-21T02:13:23;8.80;;;5.50;;
13816;SDS011;6979;52.116;5.286;2024-02-21T02:15:50;7.73;;;5.43;;
13816;SDS011;6979;52.116;5.286;2024-02-21T02:18:17;9.30;;;5.67;;
13816;SDS011;6979;52.116;5.286;2024-02-21T02:20:45;10.90;;;5.23;;
13816;SDS011;6979;52.116;5.286;2024-02-21T02:25:45;17.53;;;7.23;;
13816;SDS011;6979;52.116;5.286;2024-02-21T02:28:14;10.03;;;6.40;;
13816;SDS011;6979;52.116;5.286;2024-02-21T02:30:41;7.63;;;5.33;;
13816;SDS011;6979;52.116;5.286;2024-02-21T02:33:08;8.37;;;6.70;;
13816;SDS011;6979;52.116;5.286;2024-02-21T02:35:37;7.93;;;5.40;;
13816;SDS011;6979;52.116;5.286;2024-02-21T02:38:04;7.73;;;5.93;;
13816;SDS011;6979;52.116;5.286;2024-02-21T02:40:33;6.20;;;5.60;;
13816;SDS011;6979;52.116;5.286;2024-02-21T02:43:00;8.17;;;6.00;;
13816;SDS011;6979;52.116;5.286;2024-02-21T02:45:27;7.07;;;5.53;;
13816;SDS011;6979;52.116;5.286;2024-02-21T02:47:54;10.47;;;6.37;;
13816;SDS011;6979;52.116;5.286;2024-02-21T02:50:22;8.07;;;5.53;;
13816;SDS011;6979;52.116;5.286;2024-02-21T02:52:49;10.83;;;6.27;;
13816;SDS011;6979;52.116;5.286;2024-02-21T02:55:16;8.73;;;6.50;;
13816;SDS011;6979;52.116;5.286;2024-02-21T02:57:44;8.83;;;6.37;;
13816;SDS011;6979;52.116;5.286;2024-02-21T03:00:11;8.90;;;6.13;;
13816;SDS011;6979;52.116;5.286;2024-02-21T03:02:42;8.23;;;5.43;;
13816;SDS011;6979;52.116;5.286;2024-02-21T03:05:12;15.17;;;6.30;;
13816;SDS011;6979;52.116;5.286;2024-02-21T03:07:40;8.53;;;5.83;;
13816;SDS011;6979;52.116;5.286;2024-02-21T03:10:08;11.40;;;6.53;;
13816;SDS011;6979;52.116;5.286;2024-02-21T03:12:36;9.33;;;6.70;;
13816;SDS011;6979;52.116;5.286;2024-02-21T03:15:05;8.43;;;5.70;;
13816;SDS011;6979;52.116;5.286;2024-02-21T03:17:32;7.53;;;6.13;;
13816;SDS011;6979;52.116;5.286;2024-02-21T03:20:00;10.83;;;5.87;;
13816;SDS011;6979;52.116;5.286;2024-02-21T03:22:30;9.03;;;6.27;;
13816;SDS011;6979;52.116;5.286;2024-02-21T03:24:57;9.07;;;6.53;;
13816;SDS011;6979;52.116;5.286;2024-02-21T03:27:24;8.30;;;5.53;;
13816;SDS011;6979;52.116;5.286;2024-02-21T03:29:51;9.60;;;6.13;;
13816;SDS011;6979;52.116;5.286;2024-02-21T03:32:19;10.07;;;6.70;;
13816;SDS011;6979;52.116;5.286;2024-02-21T03:34:46;11.33;;;6.60;;
13816;SDS011;6979;52.116;5.286;2024-02-21T03:37:12;7.93;;;6.47;;
13816;SDS011;6979;52.116;5.286;2024-02-21T03:39:39;11.07;;;6.13;;
13816;SDS011;6979;52.116;5.286;2024-02-21T03:42:06;10.00;;;6.60;;
13816;SDS011;6979;52.116;5.286;2024-02-21T03:44:33;6.70;;;5.97;;
13816;SDS011;6979;52.116;5.286;2024-02-21T03:47:01;8.43;;;6.63;;
13816;SDS011;6979;52.116;5.286;2024-02-21T03:49:31;10.07;;;5.87;;
13816;SDS011;6979;52.116;5.286;2024-02-21T03:51:58;10.87;;;5.93;;
13816;SDS011;6979;52.116;5.286;2024-02-21T03:54:25;10.53;;;6.43;;
13816;SDS011;6979;52.116;5.286;2024-02-21T03:56:52;12.13;;;7.03;;
13816;SDS011;6979;52.116;5.286;2024-02-21T03:59:22;7.23;;;6.17;;
13816;SDS011;6979;52.116;5.286;2024-02-21T04:01:51;8.30;;;5.47;;
13816;SDS011;6979;52.116;5.286;2024-02-21T04:04:18;10.53;;;6.73;;
13816;SDS011;6979;52.116;5.286;2024-02-21T04:06:47;7.80;;;5.80;;
13816;SDS011;6979;52.116;5.286;2024-02-21T04:09:14;7.70;;;5.50;;
13816;SDS011;6979;52.116;5.286;2024-02-21T04:11:41;7.33;;;5.90;;
13816;SDS011;6979;52.116;5.286;2024-02-21T04:14:08;10.73;;;5.33;;
13816;SDS011;6979;52.116;5.286;2024-02-21T04:16:36;6.77;;;5.23;;
13816;SDS011;6979;52.116;5.286;2024-02-21T04:19:03;6.83;;;4.73;;
13816;SDS011;6979;52.116;5.286;2024-02-21T04:21:36;6.97;;;5.23;;
13816;SDS011;6979;52.116;5.286;2024-02-21T04:24:04;7.17;;;5.80;;
13816;SDS011;6979;52.116;5.286;2024-02-21T04:26:31;10.10;;;6.10;;
13816;SDS011;6979;52.116;5.286;2024-02-21T04:28:58;9.10;;;6.80;;
13816;SDS011;6979;52.116;5.286;2024-02-21T04:31:25;9.10;;;5.93;;
13816;SDS011;6979;52.116;5.286;2024-02-21T04:33:52;9.63;;;6.17;;
13816;SDS011;6979;52.116;5.286;2024-02-21T04:36:19;6.80;;;6.07;;
13816;SDS011;6979;52.116;5.286;2024-02-21T04:38:46;8.83;;;6.33;;
13816;SDS011;6979;52.116;5.286;2024-02-21T04:41:14;7.43;;;6.60;;
13816;SDS011;6979;52.116;5.286;2024-02-21T04:43:41;7.70;;;6.20;;
13816;SDS011;6979;52.116;5.286;2024-02-21T04:46:09;8.17;;;5.63;;
13816;SDS011;6979;52.116;5.286;2024-02-21T04:48:36;7.43;;;6.63;;
13816;SDS011;6979;52.116;5.286;2024-02-21T04:51:03;7.00;;;6.40;;
13816;SDS011;6979;52.116;5.286;2024-02-21T04:53:30;7.40;;;6.60;;
13816;SDS011;6979;52.116;5.286;2024-02-21T04:55:57;7.73;;;6.37;;
13816;SDS011;6979;52.116;5.286;2024-02-21T04:58:25;8.13;;;7.33;;
13816;SDS011;6979;52.116;5.286;2024-02-21T05:00:53;8.00;;;7.30;;
13816;SDS011;6979;52.116;5.286;2024-02-21T05:03:21;8.17;;;6.90;;
13816;SDS011;6979;52.116;5.286;2024-02-21T05:05:48;9.50;;;7.40;;
13816;SDS011;6979;52.116;5.286;2024-02-21T05:08:15;9.30;;;7.43;;
13816;SDS011;6979;52.116;5.286;2024-02-21T05:10:42;7.80;;;7.00;;
13816;SDS011;6979;52.116;5.286;2024-02-21T05:13:10;8.20;;;7.43;;
13816;SDS011;6979;52.116;5.286;2024-02-21T05:15:39;10.17;;;8.03;;
13816;SDS011;6979;52.116;5.286;2024-02-21T05:18:06;10.30;;;7.80;;
13816;SDS011;6979;52.116;5.286;2024-02-21T05:20:33;9.23;;;7.90;;
13816;SDS011;6979;52.116;5.286;2024-02-21T05:23:00;7.93;;;7.00;;
13816;SDS011;6979;52.116;5.286;2024-02-21T05:25:27;11.80;;;8.00;;
13816;SDS011;6979;52.116;5.286;2024-02-21T05:27:54;8.70;;;7.97;;
13816;SDS011;6979;52.116;5.286;2024-02-21T05:30:21;9.03;;;7.67;;
13816;SDS011;6979;52.116;5.286;2024-02-21T05:32:49;8.20;;;7.40;;
13816;SDS011;6979;52.116;5.286;2024-02-21T05:35:16;8.50;;;7.70;;
13816;SDS011;6979;52.116;5.286;2024-02-21T05:37:43;9.10;;;7.03;;
13816;SDS011;6979;52.116;5.286;2024-02-21T05:40:12;8.17;;;7.33;;
13816;SDS011;6979;52.116;5.286;2024-02-21T05:42:39;8.67;;;7.87;;
13816;SDS011;6979;52.116;5.286;2024-02-21T05:45:06;7.17;;;6.57;;
13816;SDS011;6979;52.116;5.286;2024-02-21T05:47:33;7.83;;;6.87;;
13816;SDS011;6979;52.116;5.286;2024-02-21T05:50:01;9.93;;;7.20;;
13816;SDS011;6979;52.116;5.286;2024-02-21T05:52:28;7.50;;;6.80;;
13816;SDS011;6979;52.116;5.286;2024-02-21T05:54:55;6.97;;;6.37;;
13816;SDS011;6979;52.116;5.286;2024-02-21T05:57:22;7.80;;;6.70;;
13816;SDS011;6979;52.116;5.286;2024-02-21T05:59:49;8.57;;;7.03;;
13816;SDS011;6979;52.116;5.286;2024-02-21T06:02:16;8.00;;;7.20;;
13816;SDS011;6979;52.116;5.286;2024-02-21T06:04:43;8.63;;;7.67;;
13816;SDS011;6979;52.116;5.286;2024-02-21T06:07:13;9.37;;;8.20;;
13816;SDS011;6979;52.116;5.286;2024-02-21T06:09:40;9.67;;;6.90;;
13816;SDS011;6979;52.116;5.286;2024-02-21T06:12:07;7.73;;;7.03;;
13816;SDS011;6979;52.116;5.286;2024-02-21T06:14:34;8.93;;;8.07;;
13816;SDS011;6979;52.116;5.286;2024-02-21T06:17:02;10.33;;;9.03;;
13816;SDS011;6979;52.116;5.286;2024-02-21T06:19:29;11.53;;;8.20;;
13816;SDS011;6979;52.116;5.286;2024-02-21T06:21:56;8.87;;;8.07;;
13816;SDS011;6979;52.116;5.286;2024-02-21T06:24:24;9.03;;;8.23;;
13816;SDS011;6979;52.116;5.286;2024-02-21T06:26:51;11.03;;;9.67;;
13816;SDS011;6979;52.116;5.286;2024-02-21T06:29:18;8.97;;;8.17;;
13816;SDS011;6979;52.116;5.286;2024-02-21T06:31:44;9.27;;;8.40;;
13816;SDS011;6979;52.116;5.286;2024-02-21T06:34:11;9.03;;;8.13;;
13816;SDS011;6979;52.116;5.286;2024-02-21T06:36:38;11.43;;;9.43;;
13816;SDS011;6979;52.116;5.286;2024-02-21T06:39:05;9.57;;;8.60;;
13816;SDS011;6979;52.116;5.286;2024-02-21T06:41:34;11.93;;;9.97;;
13816;SDS011;6979;52.116;5.286;2024-02-21T06:44:01;12.70;;;9.70;;
13816;SDS011;6979;52.116;5.286;2024-02-21T06:46:29;12.33;;;10.20;;
13816;SDS011;6979;52.116;5.286;2024-02-21T06:48:58;12.97;;;10.27;;
13816;SDS011;6979;52.116;5.286;2024-02-21T06:51:25;14.97;;;11.27;;
13816;SDS011;6979;52.116;5.286;2024-02-21T06:53:52;13.43;;;12.03;;
13816;SDS011;6979;52.116;5.286;2024-02-21T06:56:19;13.00;;;11.63;;
13816;SDS011;6979;52.116;5.286;2024-02-21T06:58:47;12.67;;;11.10;;
13816;SDS011;6979;52.116;5.286;2024-02-21T07:01:14;11.93;;;10.73;;
13816;SDS011;6979;52.116;5.286;2024-02-21T07:03:40;15.10;;;11.83;;
13816;SDS011;6979;52.116;5.286;2024-02-21T07:06:07;15.90;;;12.50;;
13816;SDS011;6979;52.116;5.286;2024-02-21T07:08:34;17.27;;;13.73;;
13816;SDS011;6979;52.116;5.286;2024-02-21T07:11:01;13.27;;;11.83;;
13816;SDS011;6979;52.116;5.286;2024-02-21T07:13:28;16.13;;;13.57;;
13816;SDS011;6979;52.116;5.286;2024-02-21T07:15:56;15.73;;;12.57;;
13816;SDS011;6979;52.116;5.286;2024-02-21T07:18:23;13.27;;;11.70;;
13816;SDS011;6979;52.116;5.286;2024-02-21T07:20:50;15.30;;;13.03;;
13816;SDS011;6979;52.116;5.286;2024-02-21T07:23:17;14.17;;;11.77;;
13816;SDS011;6979;52.116;5.286;2024-02-21T07:25:44;16.17;;;13.07;;
13816;SDS011;6979;52.116;5.286;2024-02-21T07:28:10;15.37;;;12.80;;
13816;SDS011;6979;52.116;5.286;2024-02-21T07:30:38;12.97;;;11.57;;
13816;SDS011;6979;52.116;5.286;2024-02-21T07:33:07;11.83;;;10.77;;
13816;SDS011;6979;52.116;5.286;2024-02-21T07:35:36;13.97;;;11.57;;
13816;SDS011;6979;52.116;5.286;2024-02-21T07:38:06;14.03;;;11.13;;
13816;SDS011;6979;52.116;5.286;2024-02-21T07:40:34;13.27;;;11.20;;
13816;SDS011;6979;52.116;5.286;2024-02-21T07:43:01;11.57;;;10.37;;
13816;SDS011;6979;52.116;5.286;2024-02-21T07:45:28;15.60;;;11.83;;
13816;SDS011;6979;52.116;5.286;2024-02-21T07:47:55;12.37;;;10.83;;
13816;SDS011;6979;52.116;5.286;2024-02-21T07:50:23;12.10;;;10.50;;
13816;SDS011;6979;52.116;5.286;2024-02-21T07:52:50;15.60;;;11.70;;
13816;SDS011;6979;52.116;5.286;2024-02-21T07:55:17;13.07;;;10.57;;
13816;SDS011;6979;52.116;5.286;2024-02-21T07:57:44;13.57;;;11.37;;
13816;SDS011;6979;52.116;5.286;2024-02-21T08:00:12;12.23;;;11.03;;
13816;SDS011;6979;52.116;5.286;2024-02-21T08:02:44;12.93;;;11.33;;
13816;SDS011;6979;52.116;5.286;2024-02-21T08:05:11;13.80;;;11.30;;
13816;SDS011;6979;52.116;5.286;2024-02-21T08:07:42;12.13;;;10.50;;
13816;SDS011;6979;52.116;5.286;2024-02-21T08:10:09;11.43;;;10.00;;
13816;SDS011;6979;52.116;5.286;2024-02-21T08:12:36;14.63;;;10.90;;
13816;SDS011;6979;52.116;5.286;2024-02-21T08:15:04;13.17;;;10.03;;
13816;SDS011;6979;52.116;5.286;2024-02-21T08:17:33;13.53;;;10.07;;
13816;SDS011;6979;52.116;5.286;2024-02-21T08:20:00;11.80;;;10.67;;
13816;SDS011;6979;52.116;5.286;2024-02-21T08:22:27;13.90;;;10.23;;
13816;SDS011;6979;52.116;5.286;2024-02-21T08:24:55;14.13;;;11.77;;
13816;SDS011;6979;52.116;5.286;2024-02-21T08:27:22;13.03;;;11.03;;
13816;SDS011;6979;52.116;5.286;2024-02-21T08:29:49;13.30;;;11.90;;
13816;SDS011;6979;52.116;5.286;2024-02-21T08:32:16;13.30;;;11.90;;
13816;SDS011;6979;52.116;5.286;2024-02-21T08:34:42;12.80;;;11.40;;
13816;SDS011;6979;52.116;5.286;2024-02-21T08:37:09;14.50;;;12.17;;
13816;SDS011;6979;52.116;5.286;2024-02-21T08:39:36;15.07;;;12.63;;
13816;SDS011;6979;52.116;5.286;2024-02-21T08:42:05;13.77;;;12.27;;
13816;SDS011;6979;52.116;5.286;2024-02-21T08:44:32;13.87;;;11.57;;
13816;SDS011;6979;52.116;5.286;2024-02-21T08:46:59;15.73;;;11.80;;
13816;SDS011;6979;52.116;5.286;2024-02-21T08:49:28;15.73;;;11.20;;
13816;SDS011;6979;52.116;5.286;2024-02-21T08:51:56;13.20;;;11.90;;
13816;SDS011;6979;52.116;5.286;2024-02-21T08:54:23;12.43;;;11.13;;
13816;SDS011;6979;52.116;5.286;2024-02-21T08:56:50;12.77;;;11.30;;
13816;SDS011;6979;52.116;5.286;2024-02-21T08:59:18;14.27;;;12.10;;
13816;SDS011;6979;52.116;5.286;2024-02-21T09:01:45;12.83;;;10.73;;
13816;SDS011;6979;52.116;5.286;2024-02-21T09:04:12;13.53;;;12.13;;
13816;SDS011;6979;52.116;5.286;2024-02-21T09:06:39;14.63;;;12.10;;
13816;SDS011;6979;52.116;5.286;2024-02-21T09:09:07;12.30;;;11.00;;
13816;SDS011;6979;52.116;5.286;2024-02-21T09:11:35;15.03;;;10.53;;
13816;SDS011;6979;52.116;5.286;2024-02-21T09:14:02;12.10;;;10.47;;
13816;SDS011;6979;52.116;5.286;2024-02-21T09:16:31;15.30;;;11.27;;
13816;SDS011;6979;52.116;5.286;2024-02-21T09:18:58;13.97;;;9.90;;
13816;SDS011;6979;52.116;5.286;2024-02-21T09:21:26;12.50;;;9.37;;
13816;SDS011;6979;52.116;5.286;2024-02-21T09:23:53;12.70;;;10.33;;
13816;SDS011;6979;52.116;5.286;2024-02-21T09:26:20;11.73;;;10.17;;
13816;SDS011;6979;52.116;5.286;2024-02-21T09:28:46;10.73;;;9.63;;
13816;SDS011;6979;52.116;5.286;2024-02-21T09:31:13;10.47;;;9.40;;
13816;SDS011;6979;52.116;5.286;2024-02-21T09:33:41;10.57;;;9.50;;
13816;SDS011;6979;52.116;5.286;2024-02-21T09:36:08;10.97;;;9.73;;
13816;SDS011;6979;52.116;5.286;2024-02-21T09:38:35;10.17;;;9.20;;
13816;SDS011;6979;52.116;5.286;2024-02-21T09:41:06;12.33;;;9.50;;
13816;SDS011;6979;52.116;5.286;2024-02-21T09:43:40;9.80;;;8.90;;
13816;SDS011;6979;52.116;5.286;2024-02-21T09:46:08;11.40;;;8.13;;
13816;SDS011;6979;52.116;5.286;2024-02-21T09:48:56;8.97;;;8.07;;
13816;SDS011;6979;52.116;5.286;2024-02-21T09:51:32;9.27;;;8.10;;
13816;SDS011;6979;52.116;5.286;2024-02-21T09:54:01;11.07;;;8.23;;
13816;SDS011;6979;52.116;5.286;2024-02-21T09:56:29;9.50;;;8.47;;
13816;SDS011;6979;52.116;5.286;2024-02-21T09:58:56;9.60;;;7.87;;
13816;SDS011;6979;52.116;5.286;2024-02-21T10:01:24;9.33;;;8.27;;
13816;SDS011;6979;52.116;5.286;2024-02-21T10:03:52;8.97;;;8.17;;
13816;SDS011;6979;52.116;5.286;2024-02-21T10:06:28;8.13;;;6.83;;
13816;SDS011;6979;52.116;5.286;2024-02-21T10:08:54;9.60;;;7.40;;
13816;SDS011;6979;52.116;5.286;2024-02-21T10:11:22;7.87;;;7.07;;
13816;SDS011;6979;52.116;5.286;2024-02-21T10:13:49;8.07;;;7.27;;
13816;SDS011;6979;52.116;5.286;2024-02-21T10:16:16;7.47;;;6.77;;
13816;SDS011;6979;52.116;5.286;2024-02-21T10:18:43;8.00;;;7.23;;
13816;SDS011;6979;52.116;5.286;2024-02-21T10:21:11;8.00;;;7.13;;
13816;SDS011;6979;52.116;5.286;2024-02-21T10:23:44;8.57;;;7.30;;
13816;SDS011;6979;52.116;5.286;2024-02-21T10:26:12;8.93;;;7.40;;
13816;SDS011;6979;52.116;5.286;2024-02-21T10:28:40;7.40;;;6.70;;
13816;SDS011;6979;52.116;5.286;2024-02-21T10:31:10;7.07;;;6.37;;
13816;SDS011;6979;52.116;5.286;2024-02-21T10:33:37;7.10;;;6.33;;
13816;SDS011;6979;52.116;5.286;2024-02-21T10:36:12;7.53;;;6.80;;
13816;SDS011;6979;52.116;5.286;2024-02-21T10:38:41;7.73;;;6.97;;
13816;SDS011;6979;52.116;5.286;2024-02-21T10:41:12;7.60;;;6.90;;
13816;SDS011;6979;52.116;5.286;2024-02-21T10:43:40;7.40;;;6.70;;
13816;SDS011;6979;52.116;5.286;2024-02-21T10:46:07;7.40;;;6.10;;
13816;SDS011;6979;52.116;5.286;2024-02-21T10:48:38;7.10;;;6.50;;
13816;SDS011;6979;52.116;5.286;2024-02-21T10:51:14;7.23;;;6.10;;
13816;SDS011;6979;52.116;5.286;2024-02-21T10:53:47;7.20;;;6.50;;
13816;SDS011;6979;52.116;5.286;2024-02-21T10:56:22;5.83;;;5.33;;
13816;SDS011;6979;52.116;5.286;2024-02-21T10:58:52;6.63;;;5.90;;
13816;SDS011;6979;52.116;5.286;2024-02-21T11:01:20;7.70;;;5.83;;
13816;SDS011;6979;52.116;5.286;2024-02-21T11:03:48;5.93;;;5.43;;
13816;SDS011;6979;52.116;5.286;2024-02-21T11:06:20;5.77;;;5.20;;
13816;SDS011;6979;52.116;5.286;2024-02-21T11:08:58;7.07;;;5.70;;
13816;SDS011;6979;52.116;5.286;2024-02-21T11:11:27;6.03;;;5.43;;
13816;SDS011;6979;52.116;5.286;2024-02-21T11:14:03;7.13;;;6.53;;
13816;SDS011;6979;52.116;5.286;2024-02-21T11:16:34;7.37;;;6.67;;
13816;SDS011;6979;52.116;5.286;2024-02-21T11:19:04;8.03;;;7.23;;
13816;SDS011;6979;52.116;5.286;2024-02-21T11:21:36;7.53;;;6.93;;
13816;SDS011;6979;52.116;5.286;2024-02-21T11:24:04;9.03;;;8.23;;
13816;SDS011;6979;52.116;5.286;2024-02-21T11:26:31;8.27;;;7.53;;
13816;SDS011;6979;52.116;5.286;2024-02-21T11:28:59;8.77;;;8.07;;
13816;SDS011;6979;52.116;5.286;2024-02-21T11:31:37;8.30;;;7.60;;
13816;SDS011;6979;52.116;5.286;2024-02-21T11:34:05;8.80;;;7.93;;
13816;SDS011;6979;52.116;5.286;2024-02-21T11:36:35;8.33;;;7.53;;
13816;SDS011;6979;52.116;5.286;2024-02-21T11:39:12;9.17;;;8.37;;
13816;SDS011;6979;52.116;5.286;2024-02-21T11:41:39;9.10;;;8.20;;
13816;SDS011;6979;52.116;5.286;2024-02-21T11:44:05;8.33;;;7.53;;
13816;SDS011;6979;52.116;5.286;2024-02-21T11:46:35;9.20;;;7.67;;
13816;SDS011;6979;52.116;5.286;2024-02-21T11:49:02;7.50;;;6.80;;
13816;SDS011;6979;52.116;5.286;2024-02-21T11:51:29;8.30;;;7.67;;
13816;SDS011;6979;52.116;5.286;2024-02-21T11:53:57;8.07;;;7.30;;
13816;SDS011;6979;52.116;5.286;2024-02-21T11:56:24;8.23;;;6.93;;
13816;SDS011;6979;52.116;5.286;2024-02-21T11:58:51;8.33;;;7.63;;
13816;SDS011;6979;52.116;5.286;2024-02-21T12:01:18;6.90;;;6.30;;
13816;SDS011;6979;52.116;5.286;2024-02-21T12:03:44;6.73;;;6.20;;
13816;SDS011;6979;52.116;5.286;2024-02-21T12:06:15;7.10;;;6.50;;
13816;SDS011;6979;52.116;5.286;2024-02-21T12:08:46;8.23;;;7.50;;
13816;SDS011;6979;52.116;5.286;2024-02-21T12:11:21;7.03;;;6.37;;
13816;SDS011;6979;52.116;5.286;2024-02-21T12:13:58;7.30;;;6.47;;
13816;SDS011;6979;52.116;5.286;2024-02-21T12:16:26;8.00;;;6.80;;
13816;SDS011;6979;52.116;5.286;2024-02-21T12:18:54;7.20;;;6.70;;
13816;SDS011;6979;52.116;5.286;2024-02-21T12:21:23;8.47;;;7.77;;
13816;SDS011;6979;52.116;5.286;2024-02-21T12:23:50;8.00;;;6.33;;
13816;SDS011;6979;52.116;5.286;2024-02-21T12:26:16;9.03;;;7.67;;
13816;SDS011;6979;52.116;5.286;2024-02-21T12:28:45;7.00;;;6.40;;
13816;SDS011;6979;52.116;5.286;2024-02-21T12:31:11;7.13;;;6.47;;
13816;SDS011;6979;52.116;5.286;2024-02-21T12:33:39;7.83;;;7.13;;
13816;SDS011;6979;52.116;5.286;2024-02-21T12:36:05;8.03;;;7.23;;
13816;SDS011;6979;52.116;5.286;2024-02-21T12:38:35;7.50;;;6.87;;
13816;SDS011;6979;52.116;5.286;2024-02-21T12:41:02;7.67;;;6.97;;
13816;SDS011;6979;52.116;5.286;2024-02-21T12:43:30;6.77;;;5.73;;
13816;SDS011;6979;52.116;5.286;2024-02-21T12:45:58;7.17;;;6.40;;
13816;SDS011;6979;52.116;5.286;2024-02-21T12:48:25;7.67;;;6.80;;
13816;SDS011;6979;52.116;5.286;2024-02-21T12:50:52;6.60;;;5.97;;
13816;SDS011;6979;52.116;5.286;2024-02-21T12:53:19;5.33;;;4.93;;
13816;SDS011;6979;52.116;5.286;2024-02-21T12:55:48;5.87;;;5.27;;
13816;SDS011;6979;52.116;5.286;2024-02-21T12:58:15;5.97;;;5.47;;
13816;SDS011;6979;52.116;5.286;2024-02-21T13:00:42;6.13;;;5.53;;
13816;SDS011;6979;52.116;5.286;2024-02-21T13:03:11;5.30;;;4.80;;
13816;SDS011;6979;52.116;5.286;2024-02-21T13:05:38;5.20;;;4.70;;
13816;SDS011;6979;52.116;5.286;2024-02-21T13:08:05;5.60;;;5.10;;
13816;SDS011;6979;52.116;5.286;2024-02-21T13:10:33;5.93;;;5.33;;
13816;SDS011;6979;52.116;5.286;2024-02-21T13:13:00;5.90;;;5.00;;
13816;SDS011;6979;52.116;5.286;2024-02-21T13:15:27;6.10;;;5.30;;
13816;SDS011;6979;52.116;5.286;2024-02-21T13:17:54;6.17;;;4.93;;
13816;SDS011;6979;52.116;5.286;2024-02-21T13:20:23;5.50;;;5.03;;
13816;SDS011;6979;52.116;5.286;2024-02-21T13:22:50;5.50;;;4.67;;
13816;SDS011;6979;52.116;5.286;2024-02-21T13:25:17;5.10;;;4.60;;
13816;SDS011;6979;52.116;5.286;2024-02-21T13:27:48;5.20;;;4.67;;
13816;SDS011;6979;52.116;5.286;2024-02-21T13:30:16;5.40;;;4.23;;
13816;SDS011;6979;52.116;5.286;2024-02-21T13:32:43;7.50;;;5.37;;
13816;SDS011;6979;52.116;5.286;2024-02-21T13:35:12;5.53;;;4.87;;
13816;SDS011;6979;52.116;5.286;2024-02-21T13:37:40;8.00;;;5.63;;
13816;SDS011;6979;52.116;5.286;2024-02-21T13:40:08;6.90;;;5.83;;
13816;SDS011;6979;52.116;5.286;2024-02-21T13:42:35;6.67;;;4.87;;
13816;SDS011;6979;52.116;5.286;2024-02-21T13:45:02;6.13;;;4.47;;
13816;SDS011;6979;52.116;5.286;2024-02-21T13:47:31;6.83;;;5.20;;
13816;SDS011;6979;52.116;5.286;2024-02-21T13:49:58;6.90;;;4.63;;
13816;SDS011;6979;52.116;5.286;2024-02-21T13:52:25;5.23;;;4.73;;
13816;SDS011;6979;52.116;5.286;2024-02-21T13:54:56;4.77;;;4.37;;
13816;SDS011;6979;52.116;5.286;2024-02-21T13:57:23;5.40;;;4.90;;
13816;SDS011;6979;52.116;5.286;2024-02-21T13:59:52;5.80;;;5.20;;
13816;SDS011;6979;52.116;5.286;2024-02-21T14:02:21;6.33;;;4.67;;
13816;SDS011;6979;52.116;5.286;2024-02-21T14:04:48;5.73;;;5.10;;
13816;SDS011;6979;52.116;5.286;2024-02-21T14:07:14;5.77;;;5.00;;
13816;SDS011;6979;52.116;5.286;2024-02-21T14:09:42;5.43;;;4.90;;
13816;SDS011;6979;52.116;5.286;2024-02-21T14:12:10;5.87;;;5.37;;
13816;SDS011;6979;52.116;5.286;2024-02-21T14:14:37;7.50;;;5.87;;
13816;SDS011;6979;52.116;5.286;2024-02-21T14:17:04;6.93;;;5.07;;
13816;SDS011;6979;52.116;5.286;2024-02-21T14:19:31;6.63;;;5.73;;
13816;SDS011;6979;52.116;5.286;2024-02-21T14:21:58;7.77;;;5.90;;
13816;SDS011;6979;52.116;5.286;2024-02-21T14:24:25;8.27;;;5.00;;
13816;SDS011;6979;52.116;5.286;2024-02-21T14:26:54;7.27;;;5.57;;
13816;SDS011;6979;52.116;5.286;2024-02-21T14:29:22;6.90;;;5.83;;
13816;SDS011;6979;52.116;5.286;2024-02-21T14:31:49;7.53;;;5.00;;
13816;SDS011;6979;52.116;5.286;2024-02-21T14:34:16;4.97;;;4.30;;
13816;SDS011;6979;52.116;5.286;2024-02-21T14:36:43;5.37;;;4.17;;
13816;SDS011;6979;52.116;5.286;2024-02-21T14:39:10;7.43;;;4.97;;
13816;SDS011;6979;52.116;5.286;2024-02-21T14:41:37;7.73;;;4.50;;
13816;SDS011;6979;52.116;5.286;2024-02-21T14:44:04;4.30;;;4.00;;
13816;SDS011;6979;52.116;5.286;2024-02-21T14:46:36;5.33;;;4.03;;
13816;SDS011;6979;52.116;5.286;2024-02-21T14:49:06;5.00;;;4.07;;
13816;SDS011;6979;52.116;5.286;2024-02-21T14:51:32;4.17;;;3.70;;
13816;SDS011;6979;52.116;5.286;2024-02-21T14:53:59;6.57;;;4.30;;
13816;SDS011;6979;52.116;5.286;2024-02-21T14:56:26;5.80;;;4.10;;
13816;SDS011;6979;52.116;5.286;2024-02-21T14:58:53;5.60;;;4.90;;
13816;SDS011;6979;52.116;5.286;2024-02-21T15:01:20;5.87;;;3.97;;